Thursday, May 24, 2018, 12:22 AM EDT
Back to Local

KART, Watertown International Airport

Location: Dexter, NY, United States Lat: 43.983
Local Time: 12:22 AM EDT ( 4:22 GMT) Lon: -76.033
Time Zone: US/Eastern Elev: 324 ft

Show me the last for .
Show Coded

Time T Td Feel RH Dir Speed Gust Alt SLP Vis Weather Sky Remarks
2018-05-23 23:56 45 45 44 100 100° 3 - 30.07 30.07 3 BR CLR None
2018-05-23 23:45 45 45 - 100 - Calm - 30.07 - 2 BR CLR Variable visibility
2018-05-23 22:56 48 48 - 100 - Calm - 30.06 30.06 9 CLR None
2018-05-23 21:56 54 48 - 80 - Calm - 30.05 30.04 10 CLR None
2018-05-23 20:56 57 50 - 77 - Calm - 30.03 30.03 10 CLR None
2018-05-23 19:56 62 50 - 64 220° 3 - 30.01 30.01 10 CLR 6-hr Min Temp (8pm): 61.0°F
6-hr Max Temp (8pm): 68.0°F
2018-05-23 18:56 66 51 - 58 230° 7 - 29.99 29.99 10 CLR None
2018-05-23 17:56 67 52 - 58 200° 8 - 29.99 29.99 10 CLR None
2018-05-23 16:56 67 52 - 58 230° 12 - 30.00 30.00 10 CLR None
2018-05-23 15:56 66 54 - 65 240° 8 - 30.00 30.00 10 CLR None
2018-05-23 14:56 66 55 - 67 230° 10 - 30.01 30.00 10 CLR None
2018-05-23 13:56 65 54 - 67 240° 12 - 30.02 30.01 10 CLR 6-hr Min Temp (2pm): 54.0°F
6-hr Max Temp (2pm): 66.0°F
2018-05-23 12:56 61 54 - 77 210° 12 18 30.03 30.02 10 CLR None
2018-05-23 12:20 59 54 - 83 220° 14 20 30.03 - 10 SCT011 None
2018-05-23 11:56 59 55 - 86 250° 10 20 30.04 30.03 8 BKN010 None
2018-05-23 11:23 60 55 - 83 240° 12 - 30.02 - 10 BKN010 None
2018-05-23 11:12 59 55 - 86 230° 15 - 30.02 - 10 SCT010 None
2018-05-23 10:56 58 55 - 90 220° 13 - 30.01 30.01 10 BKN006 None
2018-05-23 09:56 58 56 - 93 210° 13 - 30.01 30.01 5 BR BKN008 None
2018-05-23 09:35 58 55 - 90 210° 12 - 30.02 - 5 BR BKN007 None
2018-05-23 09:17 57 56 - 96 220° 8 - 30.02 - 7 SCT006 None
2018-05-23 08:56 55 55 - 100 220° 8 - 30.02 30.01 5 BR OVC003 None
2018-05-23 08:03 54 54 - 100 220° 6 - 30.00 - 4 BR OVC002 None
2018-05-23 07:56 54 54 - 100 210° 6 - 30.00 30.00 2 BR OVC002 24-hr Precip Total (8am): 0.26"
6-hr Min Temp (8am): 51.1°F
6-hr Max Temp (8am): 54.0°F
2018-05-23 07:45 54 54 - 100 230° 7 - 29.99 - 1 BR OVC002 None
2018-05-23 07:38 53 53 - 100 230° 6 - 29.99 - 0 BR OVC002 None
2018-05-23 06:56 53 53 - 100 220° 6 - 29.97 29.97 0 FG VV002 None
2018-05-23 05:56 52 52 - 100 210° 3 - 29.96 29.95 0 FG VV002 None
2018-05-23 05:42 52 52 - 100 200° 3 - 29.96 - 0 FG VV002 None
2018-05-23 05:13 52 52 - 100 210° 3 - 29.95 - 0 FG VV001 None
2018-05-23 04:56 52 52 - 100 220° 3 - 29.95 29.94 0 FG VV002 None
2018-05-23 04:12 52 52 - 100 230° 5 - 29.94 - 0 FG BKN002 OVC007 None
2018-05-23 04:04 52 52 - 100 230° 5 - 29.93 - 1 BR BKN002 OVC007 None
2018-05-23 03:56 52 52 - 100 260° 3 - 29.93 29.93 1 BR SCT002 OVC007 None
2018-05-23 03:48 52 52 - 100 210° 3 - 29.92 - 1 BR FEW002 OVC007 None
2018-05-23 03:38 52 52 - 100 160° 3 - 29.92 - 0 BR SCT002 OVC007 None
2018-05-23 03:18 52 52 - 100 - Calm - 29.93 - 1 BR OVC002 None
2018-05-23 03:11 52 52 - 100 200° 3 - 29.93 - 0 BR OVC002 None
2018-05-23 02:56 52 52 - 100 200° 3 - 29.92 29.92 1 BR OVC002 None
2018-05-23 02:47 52 52 - 100 210° 3 - 29.92 - 1 BR OVC002 None
2018-05-23 02:03 53 53 - 100 220° 3 - 29.92 - 2 BR OVC002 None
2018-05-23 01:56 53 53 - 100 220° 5 - 29.92 29.92 1 BR OVC002 6-hr Min Temp (2am): 52.0°F
6-hr Max Temp (2am): 57.0°F
2018-05-23 01:53 54 54 - 100 240° 3 - 29.93 - 1 BR OVC002 None
2018-05-23 00:56 53 53 - 100 230° 5 - 29.92 29.92 0 FG OVC002 24-hr Min Temp (1am): 51.1°F
24-hr Max Temp (1am): 62.1°F
2018-05-23 00:48 53 53 - 100 220° 5 - 29.92 - 0 BR OVC002 None
2018-05-23 00:35 53 53 - 100 210° 5 - 29.92 - 1 BR OVC002 None

Support USWX by starting your Amazon purchase here.